• Join FlightAware (Why Join?)
  • Login
  • US Flag 
02:02PM EST


 

Airport Tracker/Info


-or-


 

Live Flight TrackerFlight Track Log ✈ EJA929 ✈ 30-May-2013 ✈ KSAT - KOKC

Flight Track Log - Related Links

Times and Time Zones

All times are in EDT time to prevent confusion due to time zone crossing. See the EJA929 flight status page for this flight to view local times or setup timezone preferences in your user account.

Time Position Orientation Groundspeed Altitude Reporting Facility
EDT Latitude Longitude Course Direction KTS MPH feet Rate Location/Type
06:38PM 29.5247 -98.4636 128° Southeast 156 180 1,600  Level Houston Center
06:39PM 29.4758 -98.3906 128° Southeast 236 272 5,300 2,700 Climbing Houston Center
06:40PM 29.5289 -98.3344 43° Northeast 284 327 8,200 2,220 Climbing Houston Center
06:41PM 29.6122 -98.3347 360° North 305 351 10,000 1,560 Climbing Houston Center
06:42PM 29.7144 -98.3356 360° North 343 395 11,500 1,500 Climbing Houston Center
06:43PM 29.8167 -98.3342 North 366 421 13,100 1,560 Climbing Houston Center
06:44PM 29.9281 -98.3322 North 371 427 14,800 1,500 Climbing Houston Center
06:45PM 30.0314 -98.3314 360° North 371 427 16,300 1,500 Climbing Houston Center
06:46PM 30.1444 -98.3297 North 377 434 17,900 1,440 Climbing Houston Center
06:47PM 30.2519 -98.3314 359° North 385 443 19,300 1,260 Climbing Houston Center
06:48PM 30.3614 -98.3347 358° North 400 460 20,600 1,260 Climbing Houston Center
06:49PM 30.4753 -98.3367 359° North 404 465 22,000 1,320 Climbing Houston Center
06:51PM 30.5914 -98.3392 359° North 409 471 23,400 960 Climbing Houston Center
06:52PM 30.7050 -98.3681 348° North 422 486 24,000 240 Climbing Houston Center
06:53PM 30.8189 -98.4742 321° Northwest 440 506 24,000  Level Houston Center
06:54PM 30.9158 -98.5653 321° Northwest 442 509 24,000  Level Houston Center
06:55PM 31.0144 -98.6564 322° Northwest 446 513 24,000  Level Houston Center
06:56PM 31.1192 -98.7386 326° Northwest 453 521 24,000  Level Houston Center
06:57PM 31.2483 -98.7575 353° North 460 529 24,000  Level Houston Center
06:58PM 31.3767 -98.7761 353° North 459 528 24,000  Level Houston Center
06:59PM 31.5064 -98.7939 353° North 462 532 24,000  Level Houston Center
07:00PM 31.6550 -98.8150 353° North 457 526 24,000  Level Houston Center
07:01PM 31.7817 -98.8342 353° North 455 524 24,000  Level Houston Center
07:02PM 31.9100 -98.8536 353° North 458 527 24,000  Level Houston Center
07:03PM 32.0461 -98.8717 354° North 459 528 24,000  Level Fort Worth Center
07:04PM 32.1711 -98.8933 352° North 464 534 24,000  Level Fort Worth Center
07:05PM 32.2983 -98.9103 354° North 464 534 24,000  Level Fort Worth Center
07:06PM 32.4256 -98.9294 353° North 464 534 24,000  Level Fort Worth Center
07:07PM 32.5525 -98.9464 354° North 459 528 24,000  Level Fort Worth Center
07:08PM 32.6775 -98.9658 353° North 459 528 24,000  Level Fort Worth Center
07:09PM 32.8047 -98.9853 353° North 459 528 24,000  Level Fort Worth Center
07:10PM 32.9300 -98.9803 North 457 526 24,000  Level Fort Worth Center
07:11PM 33.0558 -98.9403 15° North 450 518 24,000  Level Fort Worth Center
07:12PM 33.1814 -98.9003 15° North 457 526 24,000  Level Fort Worth Center
07:13PM 33.3092 -98.8600 15° North 457 526 24,000  Level Fort Worth Center
07:14PM 33.4328 -98.8197 15° North 457 526 24,000  Level Fort Worth Center
07:15PM 33.5542 -98.7919 11° North 451 519 24,000  Level Fort Worth Center
07:16PM 33.6836 -98.7964 358° North 451 519 24,000  Level Fort Worth Center
07:17PM 33.8067 -98.7933 North 444 511 24,000  Level Fort Worth Center
07:18PM 33.9319 -98.7928 360° North 439 505 24,000  Level Fort Worth Center
07:19PM 34.0572 -98.7997 357° North 439 505 24,000  Level Fort Worth Center
07:20PM 34.1761 -98.7967 North 434 499 24,000  Level Fort Worth Center
07:21PM 34.3014 -98.7936 North 440 506 24,000  Level Fort Worth Center
07:22PM 34.4244 -98.7881 North 440 506 24,000  Level Fort Worth Center
07:23PM 34.5400 -98.7194 26° Northeast 440 506 24,000  Level Fort Worth Center
07:24PM 34.6331 -98.5947 48° Northeast 453 521 24,000  Level Fort Worth Center
07:25PM 34.7069 -98.4922 49° Northeast 475 547 24,000  Level Fort Worth Center
07:26PM 34.8186 -98.3544 45° Northeast 475 547 24,000 -660 Level Fort Worth Center
07:27PM 34.8733 -98.2792 48° Northeast 490 564 23,000 -2,220 Descending Fort Worth Center
07:27PM 34.9133 -98.2289 46° Northeast 489 563 21,800 -3,600 Descending Fort Worth Center
07:28PM 34.9869 -98.1256 49° Northeast 500 575 18,700 -3,780 Descending Fort Worth Center
07:29PM 35.0794 -98.0122 45° Northeast 468 539 14,900 -3,600 Descending Fort Worth Center
07:30PM 35.1781 -97.8886 46° Northeast 451 519 10,900 -2,580 Descending Fort Worth Center
07:31PM 35.2531 -97.8558 20° North 325 374 9,800 -1,740 Descending Fort Worth Center
07:32PM 35.3450 -97.8131 21° North 327 376 7,500 -2,040 Descending Fort Worth Center
07:33PM 35.4014 -97.7906 18° North 274 315 5,900 -1,860 Descending Fort Worth Center
07:34PM 35.4725 -97.7603 19° North 271 312 4,200 -960 Descending Fort Worth Center
07:35PM 35.5392 -97.7300 20° North 249 287 4,000 -120 Descending Fort Worth Center
07:36PM 35.5436 -97.6558 86° East 217 250 4,000 -300 Level Fort Worth Center
07:37PM 35.5125 -97.5947 122° Southeast 204 235 3,500 -720 Descending Fort Worth Center
07:38PM 35.4644 -97.5919 177° South 154 177 2,600 -840 Descending Fort Worth Center
07:39PM 35.4289 -97.5919 180° South 106 122 1,800 -660 Descending Fort Worth Center
07:40PM 35.3978 -97.5919 180° South 121 139 1,200 -540 Descending Fort Worth Center